Flight Track Log - Related Links

Times and Time Zones

All times are in EST time to prevent confusion due to time zone crossing. See the FSR411 flight status page for this flight to view local times or setup timezone preferences in your user account.

Time Position Orientation Groundspeed Altitude Reporting Facility
EST Latitude Longitude Course Direction KTS MPH feet Rate Location/Type
Wed 01:58:06 PM 40.0897 -88.2917 72° East 180 207 4,700  Level Chicago Center
Wed 01:59:08 PM 40.1167 -88.2311 60° Northeast 213 245 8,200 2,903 Climbing Chicago Center
Wed 02:00:10 PM 40.1519 -88.1444 62° Northeast 237 273 10,700 2,274 Climbing Chicago Center
Wed 02:01:12 PM 40.1978 -88.0378 61° Northeast 314 361 12,900 2,806 Climbing Chicago Center
Wed 02:02:14 PM 40.2486 -87.9219 60° Northeast 357 411 16,500 3,726 Climbing Chicago Center
Wed 02:03:00 PM 40.2820 -87.2675 72° East  Level Estimated
Wed 02:03:16 PM 40.3000 -87.8050 60° Northeast 369 425 20,600  Level Chicago Center
Wed 02:04:18 PM 40.3522 -87.6853 60° Northeast 377 434 22,700 1,968 Climbing Chicago Center
Wed 02:05:21 PM 40.4183 -87.5311 61° Northeast 402 463 24,700 1,104 Climbing Chicago Center
Wed 02:06:23 PM 40.4736 -87.4019 61° Northeast 408 470 25,000 145 Climbing Chicago Center
Wed 02:07:25 PM 40.5289 -87.2725 61° Northeast 407 468 25,000  Level Chicago Center
Wed 02:08:27 PM 40.5842 -87.1433 61° Northeast 408 470 25,000  Level Chicago Center
Wed 02:09:29 PM 40.6403 -87.0094 61° Northeast 408 470 25,000  Level Chicago Center
Wed 02:10:31 PM 40.6944 -86.8786 61° Northeast 407 468 25,000  Level Chicago Center
Wed 02:11:33 PM 40.7575 -86.7311 61° Northeast 408 470 25,000  Level Chicago Center
Wed 02:12:35 PM 40.8103 -86.5981 62° Northeast 410 472 25,000  Level Chicago Center
Wed 02:13:37 PM 40.8653 -86.4678 61° Northeast 408 470 25,000  Level Chicago Center
Wed 02:15:42 PM 40.9842 -86.1786 61° Northeast 408 470 25,000  Level Chicago Center
Wed 02:16:44 PM 41.0372 -86.0472 62° Northeast 407 468 25,000  Level Chicago Center
Wed 02:17:46 PM 41.0903 -85.9153 62° Northeast 407 468 25,000  Level Chicago Center
Wed 02:18:48 PM 41.1439 -85.7833 62° Northeast 408 470 25,000  Level Chicago Center
Wed 02:19:50 PM 41.1981 -85.6497 62° Northeast 412 474 25,000  Level Chicago Center
Wed 02:20:52 PM 41.2636 -85.4878 62° Northeast 418 481 25,000  Level Chicago Center
Wed 02:21:54 PM 41.3186 -85.3503 62° Northeast 424 488 25,000  Level Chicago Center
Wed 02:22:57 PM 41.3739 -85.2111 62° Northeast 429 494 25,000  Level Chicago Center
Wed 02:23:59 PM 41.4292 -85.0722 62° Northeast 431 496 25,000  Level Chicago Center
Wed 02:25:01 PM 41.4839 -84.9308 63° Northeast 433 498 25,000  Level Chicago Center
Wed 02:26:03 PM 41.5508 -84.7603 62° Northeast 436 502 25,000  Level Chicago Center
Wed 02:27:05 PM 41.6075 -84.6153 62° Northeast 440 506 25,000  Level Chicago Center
Wed 02:28:07 PM 41.6625 -84.4725 63° Northeast 437 503 25,000  Level Chicago Center
Wed 02:29:09 PM 41.7175 -84.3283 63° Northeast 437 503 25,000  Level Chicago Center
Wed 02:30:11 PM 41.7739 -84.1844 62° Northeast 438 504 25,000  Level Chicago Center
Wed 02:31:13 PM 41.8408 -84.0092 63° Northeast 443 510 25,000  Level Chicago Center
Wed 02:32:15 PM 41.8958 -83.8625 63° Northeast 442 509 25,000  Level Chicago Center
Wed 02:33:17 PM 41.9531 -83.7100 63° Northeast 446 513 25,000 -333 Level Chicago Center
Wed 02:34:39 PM 42.0272 -83.5131 63° Northeast 440 506 24,200 -417 Descending Cleveland Center
Wed 02:35:41 PM 42.0378 -83.3497 85° East 450 518 24,000 -726 Descending Cleveland Center
Wed 02:36:43 PM 42.0200 -83.1792 98° East 445 512 22,700 -1,694 Descending Cleveland Center
Wed 02:37:45 PM 42.0067 -83.0217 96° East 433 498 20,500 -2,226 Descending Cleveland Center
Wed 02:38:47 PM 41.9911 -82.8686 98° East 418 481 18,100 -2,160 Descending Cleveland Center
Wed 02:39:50 PM 41.9731 -82.6883 98° East 410 472 16,000 -1,776 Descending Cleveland Center
Wed 02:40:52 PM 41.9578 -82.5444 98° East 396 456 14,400 -1,806 Descending Cleveland Center
Wed 02:41:33 PM 41.9286 -82.4533 113° Southeast 370 426 12,900 -2,129 Descending Cleveland Center
Wed 02:41:54 PM 41.9172 -82.4172 113° Southeast 378 435 12,200 -2,333 Descending Cleveland Center
Wed 02:42:09 PM 41.9042 -82.3817 116° Southeast 344 396 11,500 -1,548 Descending Cleveland Center
Wed 02:42:56 PM 41.8811 -82.3047 112° Southeast 340 391 10,600 -1,279 Descending Cleveland Center
Wed 02:43:10 PM 41.8686 -82.2686 115° Southeast 317 365 10,200 -581 Descending Cleveland Center
Wed 02:43:58 PM 41.8472 -82.1967 112° Southeast 321 369 10,000 -197 Descending Cleveland Center
Wed 02:44:11 PM 41.8300 -82.1667 128° Southeast 312 359 10,000  Level Cleveland Center
Wed 02:45:00 PM 41.7803 -82.1197 145° Southeast 305 351 10,000  Level Cleveland Center
Wed 02:45:12 PM 41.7606 -82.1014 145° Southeast 304 350 10,000 -774 Level Cleveland Center
Wed 02:46:02 PM 41.7108 -82.0547 145° Southeast 303 349 9,200 -1,222 Descending Cleveland Center
Wed 02:46:06 PM 41.6967 -82.0431 148° Southeast 297 342 8,900 -1,645 Descending Cleveland Center
Wed 02:47:04 PM 41.6297 -81.9831 146° Southeast 298 343 7,500 -1,377 Descending Cleveland Center
Wed 02:47:07 PM 41.6289 -81.9814 124° Southeast 296 341 7,500 -469 Level Cleveland Center
Wed 02:48:08 PM 41.5647 -81.9261 147° Southeast 259 298 7,000 -248 Descending Cleveland Center
Wed 02:49:08 PM 41.5158 -81.8775 143° Southeast 224 258 7,000  Level Cleveland Center
Wed 02:49:09 PM 41.5147 -81.8761 137° Southeast 200 230 7,000  Level Cleveland Center
Wed 02:50:09 PM 41.5036 -81.7931 100° East 212 244 7,000  Level Cleveland Center
Wed 02:50:10 PM 41.5025 -81.7992 256° West 217 250 7,000  Level Cleveland Center
Wed 02:51:10 PM 41.5022 -81.7147 90° East 211 243 7,000  Level Cleveland Center
Wed 02:51:12 PM 41.5019 -81.7206 266° West 211 243 7,000 -393 Level Cleveland Center
Wed 02:52:11 PM 41.5008 -81.6392 91° East 206 237 6,600 -290 Descending Cleveland Center
Wed 02:52:14 PM 41.5008 -81.6425 270° West 208 239 6,700 -1,279 Climbing Cleveland Center
Wed 02:53:12 PM 41.4975 -81.5575 93° East 214 246 5,300 -1,258 Descending Cleveland Center
Wed 02:53:16 PM 41.4981 -81.5619 279° West 213 245 5,400 -295 Climbing Cleveland Center
Wed 02:54:13 PM 41.4744 -81.4897 114° Southeast 203 234 5,000 -381 Descending Cleveland Center
Wed 02:54:19 PM 41.4747 -81.4922 278° West 209 241 5,000  Level Cleveland Center
Wed 02:55:13 PM 41.4142 -81.4831 174° South 209 241 5,000  Level Cleveland Center
Wed 02:55:21 PM 41.4158 -81.4831 360° North 212 244 5,000  Level Cleveland Center
Wed 02:56:14 PM 41.3989 -81.5364 247° West 157 181 5,000  Level Cleveland Center
Wed 02:56:23 PM 41.4003 -81.5453 282° West 167 192 5,000 -197 Level Cleveland Center
Wed 02:57:15 PM 41.4061 -81.5961 279° West 162 186 4,800 -290 Descending Cleveland Center
Wed 02:57:25 PM 41.4061 -81.6042 270° West 163 188 4,700 -750 Descending Cleveland Center
Wed 02:58:27 PM 41.4092 -81.6619 274° West 158 182 3,900 -757 Descending Cleveland Center
Wed 02:59:16 PM 41.4100 -81.7139 271° West 155 178 3,300 -677 Descending Cleveland Center
Wed 02:59:29 PM 41.4097 -81.7164 262° West 148 170 3,200 -984 Descending Cleveland Center
Wed 03:00:17 PM 41.4125 -81.7561 275° West 125 144 2,300 -968 Descending Cleveland Center
Wed 03:00:31 PM 41.4117 -81.7589 248° West 126 145 2,200 -800 Descending Cleveland Center
Wed 03:01:17 PM 41.4147 -81.8011 276° West 129 148 1,500 -871 Descending Cleveland Center
Wed 03:01:33 PM 41.4142 -81.8094 265° West 119 137 1,300 -462 Descending Cleveland Center
Wed 03:02:35 PM 41.4161 -81.8536 273° West 117 135 900 -387 Descending Cleveland Center

Login

Don't have an account? Register now (free) for customized features, flight alerts, and more!